KHMN/HMN METAR and TAF weather

Enter ICAO airport designator
Station Type Date Time Source
KHMN METAR 2019/08/26 06:58 UTC NOAA

KHMN 260658Z AUTO 14003KT 10SM CLR 27/06 A2996 RMK AO2 SLP063 T02700064 403790234 $


Station Type Date Time Source
KHMN Decoded METAR 2019/08/26 06:58 UTC NOAA

Station name not available
Aug 26, 2019 - 02:58 AM EDT / 2019.08.26 0658 UTC
Wind: from the SE (140 degrees) at 3 MPH (3 KT):0
Visibility: 10 mile(s):0
Sky conditions: clear
Temperature: 80.6 F (27.0 C)
Dew Point: 43.5 F (6.4 C)
Relative Humidity: 26%
Pressure (altimeter): 29.96 in. Hg (1014 hPa)
ob: KHMN 260658Z AUTO 14003KT 10SM CLR 27/06 A2996 RMK AO2 SLP063 T02700064 403790234
cycle: 7

Station Type Date Time Source
KHMN TAF 2019/08/23 21:39 UTC NOAA

TAF
AMD KHMN 232135Z 2321/2423 22012G18KT 9999 SCT110 QNH3001INS TS OMTNS
TEMPO 2322/2402 VRB20G30KT VCTS SCT110CB BKN140
BECMG 2401/2402 18012KT 9999 BKN110 QNH2996INS
BECMG 2405/2406 VRB06KT 9999 SCT090 QNH3002INS
BECMG 2414/2415 27012KT 9999 FEW100 QNH3002INS TX34/2323Z TN20/2412Z LAST NO
AMDS AFT 2400 NEXT 2609

Example: see airport list